La Habra, California
Current Conditions -  °F | °C
As of 9:53 AM on Thursday 29 Jan 2015 (Local Time) from KFUL Reporting Station
Clear Clear  
Wind Chill: 23°   Ceiling: Unl
Heat Index: 23°   Visibility: 10mi
Dew Point:   Wind: 6mph
Humidity: 29%   Direction: 50°NE
Pressure: 30.05"   Gusts: NA
Location:  33.93°N, 117.94°W
Report Text: KFUL 291753Z 05005KT 10SM CLR 23/04 A3005 RMK AO2 SLP175 T02330044 10233 20156 53009
Loading
Personal Weather Stations






























Interactive Weather Map New forecast layout! Learn more

10-Day Weather Forecast

Advertisements
Track Severe Weather on mobile